createdAt,value
2019-02-08T00:02:46.779Z,1012.31
2019-02-08T00:04:46.779Z,1012.23
2019-02-08T00:08:46.776Z,1012.32
2019-02-08T00:10:47.470Z,1012.29
2019-02-08T00:14:46.761Z,1012.31
2019-02-08T00:16:46.774Z,1012.31
2019-02-08T00:20:46.769Z,1012.23
2019-02-08T00:22:46.803Z,1012.33
2019-02-08T00:26:46.790Z,1012.36
2019-02-08T00:28:46.762Z,1012.35
2019-02-08T00:32:50.448Z,1012.36
2019-02-08T00:34:46.783Z,1012.37
2019-02-08T00:38:46.826Z,1012.24
2019-02-08T00:40:46.811Z,1012.38
2019-02-08T00:44:46.770Z,1012.30
2019-02-08T00:46:46.790Z,1012.36
2019-02-08T00:50:46.827Z,1012.41
2019-02-08T00:52:47.677Z,1012.39
2019-02-08T00:56:46.946Z,1012.34
2019-02-08T00:58:46.750Z,1012.38
2019-02-08T01:02:46.803Z,1012.40
2019-02-08T01:04:46.797Z,1012.43
2019-02-08T01:08:46.812Z,1012.41
2019-02-08T01:10:46.947Z,1012.37
2019-02-08T01:14:46.836Z,1012.32
2019-02-08T01:16:46.790Z,1012.29
2019-02-08T01:20:46.811Z,1012.38
2019-02-08T01:22:46.989Z,1012.34
2019-02-08T01:26:51.307Z,1012.39
2019-02-08T01:28:46.912Z,1012.32
2019-02-08T01:32:46.840Z,1012.36
2019-02-08T01:34:46.819Z,1012.34
2019-02-08T01:38:46.771Z,1012.36
2019-02-08T01:40:46.813Z,1012.42
2019-02-08T01:44:46.839Z,1012.35
2019-02-08T01:46:46.848Z,1012.29
2019-02-08T01:50:46.841Z,1012.32
2019-02-08T01:52:46.934Z,1012.34
2019-02-08T01:56:48.720Z,1012.28
2019-02-08T01:58:46.845Z,1012.24
2019-02-08T02:02:46.790Z,1012.26
2019-02-08T02:04:51.854Z,1012.25
2019-02-08T02:08:46.823Z,1012.36
2019-02-08T02:10:46.870Z,1012.37
2019-02-08T02:14:46.797Z,1012.42
2019-02-08T02:16:46.849Z,1012.41
2019-02-08T02:20:51.549Z,1012.38
2019-02-08T02:22:46.822Z,1012.31
2019-02-08T02:26:46.833Z,1012.26
2019-02-08T02:28:46.863Z,1012.32
2019-02-08T02:32:49.538Z,1012.31
2019-02-08T02:34:46.818Z,1012.38
2019-02-08T02:38:51.826Z,1012.31
2019-02-08T02:40:46.827Z,1012.34
2019-02-08T02:44:46.856Z,1012.25
2019-02-08T02:46:46.862Z,1012.15
2019-02-08T02:50:46.972Z,1012.12
2019-02-08T02:52:46.850Z,1012.13
2019-02-08T02:56:47.044Z,1012.13
2019-02-08T02:58:46.981Z,1012.13
2019-02-08T03:02:46.805Z,1012.16
2019-02-08T03:06:46.887Z,1012.07
2019-02-08T03:08:51.305Z,1012.10
2019-02-08T03:12:46.816Z,1012.17
2019-02-08T03:16:46.899Z,1012.19
2019-02-08T03:18:47.017Z,1012.07
2019-02-08T03:22:46.863Z,1012.07
2019-02-08T03:24:46.897Z,1012.10
2019-02-08T03:28:46.890Z,1012.03
2019-02-08T03:30:47.030Z,1011.94
2019-02-08T03:34:46.851Z,1011.92
2019-02-08T03:36:46.946Z,1011.90
2019-02-08T03:40:46.823Z,1011.85
2019-02-08T03:42:46.988Z,1011.90
2019-02-08T03:46:46.996Z,1011.98
2019-02-08T03:48:46.856Z,1011.99
2019-02-08T03:52:47.072Z,1011.94
2019-02-08T03:54:49.654Z,1011.89
2019-02-08T03:58:46.854Z,1011.88
2019-02-08T04:00:51.830Z,1011.85
2019-02-08T04:04:47.017Z,1011.78
2019-02-08T04:06:46.912Z,1011.83
2019-02-08T04:10:46.935Z,1011.83
2019-02-08T04:12:46.967Z,1011.81
2019-02-08T04:16:46.987Z,1011.78
2019-02-08T04:18:46.982Z,1011.82
2019-02-08T04:22:46.992Z,1011.74
2019-02-08T04:24:46.896Z,1011.80
2019-02-08T04:28:47.094Z,1011.78
2019-02-08T04:30:47.037Z,1011.80
2019-02-08T04:34:46.898Z,1011.73
2019-02-08T04:36:47.007Z,1011.69
2019-02-08T04:40:47.064Z,1011.71
2019-02-08T04:42:46.891Z,1011.65
2019-02-08T04:46:47.066Z,1011.62
2019-02-08T04:48:47.100Z,1011.55
2019-02-08T04:52:47.096Z,1011.60
2019-02-08T04:54:46.909Z,1011.61
2019-02-08T04:58:51.490Z,1011.63
2019-02-08T05:00:51.512Z,1011.61
2019-02-08T05:04:47.062Z,1011.61
2019-02-08T05:06:49.610Z,1011.58
2019-02-08T05:10:46.991Z,1011.53
2019-02-08T05:12:46.982Z,1011.57
2019-02-08T05:16:47.830Z,1011.52
2019-02-08T05:18:47.026Z,1011.53
2019-02-08T05:22:47.038Z,1011.41
2019-02-08T05:24:46.898Z,1011.36
2019-02-08T05:28:46.971Z,1011.34
2019-02-08T05:30:46.878Z,1011.28
2019-02-08T05:34:46.852Z,1011.22
2019-02-08T05:36:46.895Z,1011.16
2019-02-08T05:40:47.056Z,1011.18
2019-02-08T05:42:47.089Z,1011.13
2019-02-08T05:46:47.008Z,1011.15
2019-02-08T05:48:46.989Z,1011.09
2019-02-08T05:52:47.043Z,1011.19
2019-02-08T05:54:54.216Z,1011.17
2019-02-08T05:58:46.932Z,1011.11
2019-02-08T06:00:47.088Z,1011.08
2019-02-08T06:04:46.878Z,1011.12
2019-02-08T06:06:47.074Z,1011.06
2019-02-08T06:10:46.864Z,1011.02
2019-02-08T06:12:46.888Z,1011.08
2019-02-08T06:16:47.089Z,1011.10
2019-02-08T06:18:46.868Z,1011.15
2019-02-08T06:22:46.894Z,1011.12
2019-02-08T06:24:46.860Z,1011.07
2019-02-08T06:28:46.870Z,1011.14
2019-02-08T06:30:46.878Z,1011.08
2019-02-08T06:34:46.927Z,1011.11
2019-02-08T06:36:46.900Z,1011.09
2019-02-08T06:40:46.904Z,1011.06
2019-02-08T06:42:46.913Z,1011.07
2019-02-08T06:46:46.862Z,1011.06
2019-02-08T06:48:46.862Z,1011.09
2019-02-08T06:52:51.564Z,1011.04
2019-02-08T06:54:46.912Z,1011.00
2019-02-08T06:58:46.940Z,1011.01
2019-02-08T07:00:46.912Z,1011.01
2019-02-08T07:04:46.901Z,1010.97
2019-02-08T07:06:46.880Z,1010.99
2019-02-08T07:10:46.939Z,1011.01
2019-02-08T07:12:46.898Z,1011.05
2019-02-08T07:16:46.902Z,1011.00
2019-02-08T07:18:46.910Z,1011.01
2019-02-08T07:22:46.949Z,1010.92
2019-02-08T07:24:46.896Z,1010.94
2019-02-08T07:28:51.378Z,1010.96
2019-02-08T07:30:46.910Z,1010.90
2019-02-08T07:34:46.898Z,1010.94
2019-02-08T07:36:46.931Z,1010.99
2019-02-08T07:40:46.937Z,1010.98
2019-02-08T07:42:46.898Z,1011.02
2019-02-08T07:46:46.914Z,1010.96
2019-02-08T07:48:46.953Z,1010.98
2019-02-08T07:52:46.928Z,1010.92
2019-02-08T07:54:46.922Z,1010.92
2019-02-08T07:58:46.919Z,1010.93
2019-02-08T08:00:47.006Z,1010.89
2019-02-08T08:04:46.954Z,1010.88
2019-02-08T08:06:46.939Z,1010.94
2019-02-08T08:10:46.951Z,1010.94
2019-02-08T08:12:46.930Z,1010.93
2019-02-08T08:16:51.896Z,1010.83
2019-02-08T08:18:52.106Z,1010.87
2019-02-08T08:22:46.892Z,1010.79
2019-02-08T08:24:46.956Z,1010.87
2019-02-08T08:28:46.963Z,1010.79
2019-02-08T08:30:46.946Z,1010.74
2019-02-08T08:34:46.891Z,1010.75
2019-02-08T08:36:46.932Z,1010.76
2019-02-08T08:40:46.934Z,1010.73
2019-02-08T08:42:46.926Z,1010.62
2019-02-08T08:48:46.944Z,1010.56
2019-02-08T08:50:46.966Z,1010.49
2019-02-08T08:54:46.904Z,1010.52
2019-02-08T08:56:46.993Z,1010.39
2019-02-08T09:00:46.958Z,1010.43
2019-02-08T09:02:46.960Z,1010.38
2019-02-08T09:06:46.967Z,1010.23
2019-02-08T09:08:46.965Z,1010.29
2019-02-08T09:12:46.940Z,1010.20
2019-02-08T09:14:46.921Z,1010.27
2019-02-08T09:18:52.137Z,1010.15
2019-02-08T09:20:46.974Z,1010.12
2019-02-08T09:24:46.943Z,1010.17
2019-02-08T09:26:46.947Z,1010.13
2019-02-08T09:39:42.376Z,1010.00
2019-02-08T09:41:42.370Z,1009.94
2019-02-08T09:43:42.359Z,1009.90
2019-02-08T09:45:42.379Z,1009.82
2019-02-08T09:47:42.369Z,1009.94
2019-02-08T09:49:42.372Z,1009.96
2019-02-08T09:51:47.206Z,1009.87
2019-02-08T09:53:42.355Z,1009.94
2019-02-08T09:55:42.340Z,1009.85
2019-02-08T09:57:42.383Z,1009.89
2019-02-08T09:59:42.346Z,1009.82
2019-02-08T10:01:42.383Z,1009.80
2019-02-08T10:03:42.388Z,1009.74
2019-02-08T10:05:42.351Z,1009.66
2019-02-08T10:07:42.358Z,1009.70
2019-02-08T10:09:42.368Z,1009.78
2019-02-08T10:11:42.351Z,1009.65
2019-02-08T10:13:42.375Z,1009.61
2019-02-08T10:15:42.391Z,1009.58
2019-02-08T10:17:42.368Z,1009.64
2019-02-08T10:19:42.344Z,1009.68
2019-02-08T10:21:42.411Z,1009.71
2019-02-08T10:23:42.363Z,1009.69
2019-02-08T10:25:42.361Z,1009.60
2019-02-08T10:27:42.404Z,1009.64
2019-02-08T10:29:42.342Z,1009.66
2019-02-08T10:31:42.400Z,1009.64
2019-02-08T10:33:42.381Z,1009.65
2019-02-08T10:35:47.014Z,1009.71
2019-02-08T10:37:42.361Z,1009.62
2019-02-08T10:39:42.410Z,1009.66
2019-02-08T10:41:42.359Z,1009.62
2019-02-08T10:43:42.365Z,1009.60
2019-02-08T10:45:42.400Z,1009.55
2019-02-08T10:47:42.376Z,1009.48
2019-02-08T10:49:42.376Z,1009.36
2019-02-08T10:51:42.430Z,1009.40
2019-02-08T10:53:42.347Z,1009.43
2019-02-08T10:55:42.354Z,1009.47
2019-02-08T10:57:42.616Z,1009.47
2019-02-08T10:59:42.369Z,1009.54
2019-02-08T11:01:42.375Z,1009.36
2019-02-08T11:03:42.408Z,1009.26
2019-02-08T11:05:42.363Z,1009.29
2019-02-08T11:07:42.374Z,1009.23
2019-02-08T11:09:42.408Z,1009.18
2019-02-08T11:11:42.381Z,1009.15
2019-02-08T11:13:42.371Z,1009.13
2019-02-08T11:15:42.480Z,1009.07
2019-02-08T11:17:42.382Z,1009.08
2019-02-08T11:19:42.528Z,1009.01
2019-02-08T11:22:27.527Z,1009.03
2019-02-08T11:24:27.561Z,1008.98
2019-02-08T11:26:24.535Z,1008.92
2019-02-08T11:28:22.577Z,1008.92
2019-02-08T11:30:22.592Z,1008.85
2019-02-08T11:32:42.580Z,1008.80
2019-02-08T11:34:22.625Z,1008.69
2019-02-08T11:36:22.582Z,1008.67
2019-02-08T11:38:22.571Z,1008.70
2019-02-08T11:40:22.607Z,1008.60
2019-02-08T11:42:22.596Z,1008.58
2019-02-08T11:44:22.578Z,1008.64
2019-02-08T11:46:22.582Z,1008.63
2019-02-08T11:48:22.563Z,1008.55
2019-02-08T11:50:22.573Z,1008.48
2019-02-08T11:52:22.598Z,1008.48
2019-02-08T11:54:22.545Z,1008.55
2019-02-08T11:56:29.759Z,1008.63
2019-02-08T11:58:22.630Z,1008.52
2019-02-08T12:00:22.594Z,1008.46
2019-02-08T12:02:24.815Z,1008.51
2019-02-08T12:04:22.602Z,1008.36
2019-02-08T12:06:24.053Z,1008.44
2019-02-08T12:08:22.583Z,1008.36
2019-02-08T12:10:22.659Z,1008.29
2019-02-08T12:12:22.576Z,1008.38
2019-02-08T12:14:22.558Z,1008.32
2019-02-08T12:16:22.611Z,1008.34
2019-02-08T12:18:22.610Z,1008.33
2019-02-08T12:20:22.613Z,1008.29
2019-02-08T12:22:22.620Z,1008.27
2019-02-08T12:24:22.581Z,1008.12
2019-02-08T12:26:22.584Z,1008.07
2019-02-08T12:28:22.644Z,1007.95
2019-02-08T12:30:22.614Z,1007.97
2019-02-08T12:32:22.582Z,1007.84
2019-02-08T12:34:27.168Z,1007.90
2019-02-08T12:36:27.193Z,1007.88
2019-02-08T12:38:22.585Z,1007.82
2019-02-08T12:40:22.622Z,1007.74
2019-02-08T12:42:22.578Z,1007.78
2019-02-08T12:44:22.604Z,1007.68
2019-02-08T12:50:22.585Z,1007.62
2019-02-08T12:52:27.010Z,1007.60
2019-02-08T12:56:22.573Z,1007.60
2019-02-08T12:58:22.940Z,1007.52
2019-02-08T13:02:22.584Z,1007.50
2019-02-08T13:04:22.578Z,1007.37
2019-02-08T13:08:22.614Z,1007.27
2019-02-08T13:10:22.598Z,1007.15
2019-02-08T13:14:22.584Z,1007.13
2019-02-08T13:16:22.609Z,1007.10
2019-02-08T13:20:27.059Z,1006.98
2019-02-08T13:22:22.610Z,1006.99
2019-02-08T13:26:22.610Z,1006.90
2019-02-08T13:28:22.636Z,1006.84
2019-02-08T13:32:22.630Z,1006.83
2019-02-08T13:34:22.629Z,1006.73
2019-02-08T13:38:22.610Z,1006.73
2019-02-08T13:40:23.390Z,1006.70
2019-02-08T13:44:22.603Z,1006.74
2019-02-08T13:46:22.629Z,1006.58
2019-02-08T13:50:24.949Z,1006.55
2019-02-08T13:52:27.060Z,1006.58
2019-02-08T13:57:07.305Z,1006.46
2019-02-08T13:59:07.344Z,1006.45
2019-02-08T14:01:07.450Z,1006.40
2019-02-08T14:03:10.861Z,1006.39
2019-02-08T14:05:08.864Z,1006.36
2019-02-08T14:08:06.503Z,1006.38
2019-02-08T14:10:06.541Z,1006.08
2019-02-08T14:12:06.595Z,1006.19
2019-02-08T14:14:06.627Z,1006.25
2019-02-08T14:16:06.943Z,1006.18
2019-02-08T14:18:27.956Z,1006.31
2019-02-08T14:20:27.929Z,1006.16
2019-02-08T14:22:30.214Z,1006.20
2019-02-08T14:24:28.388Z,1006.18
2019-02-08T14:26:29.167Z,1006.07
2019-02-08T15:20:52.195Z,1005.14
2019-02-08T15:22:52.159Z,1005.05
2019-02-08T15:24:52.165Z,1005.02
2019-02-08T15:26:52.388Z,1004.93
2019-02-08T15:28:57.086Z,1004.99
2019-02-08T15:31:03.710Z,1004.87
2019-02-08T15:32:56.639Z,1004.81
2019-02-08T15:34:56.061Z,1004.91
2019-02-08T15:36:56.588Z,1004.87
2019-02-08T15:38:52.191Z,1004.85
2019-02-08T15:40:52.195Z,1004.83
2019-02-08T15:42:56.519Z,1004.78
2019-02-08T15:44:52.172Z,1004.73
2019-02-08T15:46:56.656Z,1004.67
2019-02-08T15:48:57.125Z,1004.63
2019-02-08T15:50:52.212Z,1004.57
2019-02-08T15:52:57.146Z,1004.52
2019-02-08T15:54:52.156Z,1004.54
2019-02-08T15:56:52.235Z,1004.58
2019-02-08T15:58:55.955Z,1004.58
2019-02-08T16:00:52.166Z,1004.50
2019-02-08T16:02:52.232Z,1004.59
2019-02-08T16:06:35.237Z,1004.57
2019-02-08T16:08:35.201Z,1004.43
2019-02-08T16:22:13.729Z,1004.25
2019-02-08T16:24:13.824Z,1004.25
2019-02-08T16:26:18.615Z,1004.13
2019-02-08T16:28:19.550Z,1004.31
2019-02-08T16:30:16.170Z,1004.19
2019-02-08T16:32:21.107Z,1004.15
2019-02-08T16:34:13.804Z,1004.12
2019-02-08T16:37:03.530Z,1003.97
2019-02-08T16:38:59.782Z,1004.06
2019-02-08T16:40:59.759Z,1004.04
2019-02-08T16:42:59.833Z,1003.95
2019-02-08T16:44:59.755Z,1003.91
2019-02-08T16:46:59.766Z,1003.93
2019-02-08T16:48:59.801Z,1003.95
2019-02-08T16:50:59.804Z,1003.79
2019-02-08T16:52:59.756Z,1003.79
2019-02-08T16:54:59.810Z,1003.80
2019-02-08T16:57:04.767Z,1003.81
2019-02-08T16:58:59.775Z,1003.91
2019-02-08T17:00:59.809Z,1003.69
2019-02-08T17:03:04.399Z,1003.72
2019-02-08T17:04:59.782Z,1003.63
2019-02-08T17:06:59.822Z,1003.70
2019-02-08T17:08:59.832Z,1003.65
2019-02-08T17:10:59.802Z,1003.60
2019-02-08T17:12:59.827Z,1003.55
2019-02-08T17:15:00.566Z,1003.59
2019-02-08T17:16:59.789Z,1003.47
2019-02-08T17:18:59.801Z,1003.54
2019-02-08T17:21:00.718Z,1003.46
2019-02-08T17:22:59.827Z,1003.49
2019-02-08T17:24:59.847Z,1003.38
2019-02-08T17:26:59.825Z,1003.40
2019-02-08T17:28:59.792Z,1003.36
2019-02-08T17:30:59.823Z,1003.36
2019-02-08T17:32:59.789Z,1003.37
2019-02-08T17:34:59.822Z,1003.31
2019-02-08T17:36:59.819Z,1003.29
2019-02-08T17:39:00.901Z,1003.14
2019-02-08T17:41:22.556Z,1003.18
2019-02-08T17:43:27.746Z,1003.24
2019-02-08T17:45:26.996Z,1003.14
2019-02-08T17:47:22.680Z,1003.09
2019-02-08T17:49:22.620Z,1003.11
2019-02-08T17:51:42.484Z,1003.04
2019-02-08T17:53:47.890Z,1003.01
2019-02-08T17:55:42.559Z,1002.93
2019-02-08T17:57:42.709Z,1002.81
2019-02-08T17:59:42.697Z,1002.93
2019-02-08T18:02:07.770Z,1002.83
2019-02-08T18:04:08.890Z,1002.74
2019-02-08T18:06:07.792Z,1002.74
2019-02-08T18:08:11.034Z,1002.68
2019-02-08T18:10:10.833Z,1002.65
2019-02-08T18:12:35.546Z,1002.70
2019-02-08T18:14:35.756Z,1002.47
2019-02-08T18:16:35.621Z,1002.50
2019-02-08T18:18:38.020Z,1002.52
2019-02-08T18:31:48.872Z,1002.25
2019-02-08T18:33:48.689Z,1002.29
2019-02-08T18:35:48.697Z,1002.12
2019-02-08T18:37:48.851Z,1002.22
2019-02-08T18:39:48.720Z,1002.18
2019-02-08T18:41:48.716Z,1002.09
2019-02-08T18:47:48.716Z,1002.00
2019-02-08T18:49:48.720Z,1001.93
2019-02-08T18:53:48.717Z,1001.86
2019-02-08T18:55:48.699Z,1001.79
2019-02-08T18:59:49.782Z,1001.75
2019-02-08T19:01:48.840Z,1001.66
2019-02-08T19:07:48.724Z,1001.64
2019-02-08T19:09:48.731Z,1001.60
2019-02-08T19:13:48.733Z,1001.63
2019-02-08T19:15:48.748Z,1001.55
2019-02-08T19:19:53.914Z,1001.47
2019-02-08T19:21:48.877Z,1001.50
2019-02-08T19:25:48.730Z,1001.55
2019-02-08T19:27:48.752Z,1001.46
2019-02-08T19:31:48.715Z,1001.40
2019-02-08T19:33:48.732Z,1001.51
2019-02-08T19:37:53.384Z,1001.30
2019-02-08T19:39:49.722Z,1001.34
2019-02-08T19:43:48.737Z,1001.14
2019-02-08T19:45:48.738Z,1001.15
2019-02-08T19:49:48.733Z,1001.11
2019-02-08T19:51:48.747Z,1001.17
2019-02-08T19:59:54.324Z,1000.96
2019-02-08T20:01:53.928Z,1001.03
2019-02-08T20:05:48.733Z,1000.91
2019-02-08T20:07:53.928Z,1000.91
2019-02-08T20:11:51.022Z,1000.82
2019-02-08T20:13:48.742Z,1000.74
2019-02-08T20:19:48.759Z,1000.65
2019-02-08T20:21:53.983Z,1000.58
2019-02-08T20:29:53.937Z,1000.46
2019-02-08T20:31:54.311Z,1000.55
2019-02-08T20:37:48.775Z,1000.27
2019-02-08T20:39:48.765Z,1000.45
2019-02-08T20:43:53.745Z,1000.40
2019-02-08T20:45:53.953Z,1000.37
2019-02-08T20:51:48.763Z,1000.28
2019-02-08T20:53:48.769Z,1000.09
2019-02-08T20:57:53.758Z,1000.42
2019-02-08T20:59:48.764Z,1000.09
2019-02-08T21:05:48.757Z,1000.21
2019-02-08T21:07:48.765Z,1000.26
2019-02-08T21:11:53.327Z,1000.12
2019-02-08T21:13:52.391Z,1000.18
2019-02-08T21:17:48.759Z,1000.09
2019-02-08T21:19:53.953Z,1000.07
2019-02-08T21:23:48.797Z,1000.07
2019-02-08T21:25:51.741Z,1000.07
2019-02-08T21:29:48.772Z,1000.00
2019-02-08T21:31:48.767Z,999.90
2019-02-08T21:35:49.575Z,999.97
2019-02-08T21:37:48.772Z,1000.01
2019-02-08T21:41:48.765Z,999.94
2019-02-08T21:43:53.437Z,999.91
2019-02-08T21:47:48.823Z,999.88
2019-02-08T21:49:48.820Z,999.93
2019-02-08T21:53:48.765Z,999.75
2019-02-08T21:55:48.782Z,999.76
2019-02-08T21:58:34.590Z,999.72
2019-02-08T22:00:34.529Z,999.68
2019-02-08T22:02:38.901Z,999.61
2019-02-08T22:04:34.565Z,999.67
2019-02-08T22:06:34.521Z,999.57
2019-02-08T22:09:14.503Z,999.43
2019-02-08T22:11:18.125Z,999.50
2019-02-08T22:13:15.318Z,999.34
2019-02-08T22:15:14.563Z,999.56
2019-02-08T22:17:14.485Z,999.40
2019-02-08T22:19:40.187Z,999.45
2019-02-08T22:21:41.392Z,999.39
2019-02-08T22:23:40.403Z,999.21
2019-02-08T22:25:38.158Z,999.20
2019-02-08T22:27:38.104Z,999.33
2019-02-08T22:29:38.146Z,999.30
2019-02-08T22:31:38.271Z,999.16
2019-02-08T22:33:38.122Z,999.01
2019-02-08T22:36:24.295Z,999.22
2019-02-08T22:38:29.772Z,999.08
2019-02-08T22:40:26.445Z,999.02
2019-02-08T22:42:24.314Z,998.97
2019-02-08T22:47:57.712Z,998.92
2019-02-08T22:49:57.694Z,998.81
2019-02-08T22:51:57.699Z,998.88
2019-02-08T22:53:57.700Z,998.89
2019-02-08T22:55:57.685Z,998.59
2019-02-08T22:57:57.690Z,998.73
2019-02-08T23:01:41.147Z,998.63
2019-02-08T23:03:41.125Z,998.77
2019-02-08T23:05:45.729Z,998.76
2019-02-08T23:07:41.165Z,998.79
2019-02-08T23:09:41.106Z,998.90
2019-02-08T23:11:41.121Z,998.66
2019-02-08T23:13:41.145Z,998.82
2019-02-08T23:15:45.166Z,998.72
2019-02-08T23:17:41.164Z,998.90
2019-02-08T23:19:41.179Z,998.71
2019-02-08T23:21:41.151Z,998.77
2019-02-08T23:23:41.163Z,998.72
2019-02-08T23:25:41.170Z,998.65
2019-02-08T23:27:41.182Z,998.71
2019-02-08T23:29:41.185Z,998.88
2019-02-08T23:31:41.199Z,998.75
2019-02-08T23:33:41.182Z,998.68
2019-02-08T23:35:46.126Z,998.66
2019-02-08T23:37:44.934Z,998.63
2019-02-08T23:39:41.176Z,998.72
2019-02-08T23:41:41.155Z,998.69
2019-02-08T23:43:41.199Z,998.77
2019-02-08T23:45:46.173Z,998.72
2019-02-08T23:47:41.201Z,998.60
2019-02-08T23:49:41.185Z,998.77
2019-02-08T23:51:41.165Z,998.63
2019-02-08T23:53:41.162Z,998.53
2019-02-08T23:55:41.176Z,998.55
2019-02-08T23:57:41.182Z,998.57
2019-02-08T23:59:41.167Z,998.61
